Beech Creek, Arkansas
Current Conditions -  °F | °C
As of 6:15 PM on Wednesday 26 Nov 2014 (Local Time) from KBQP Reporting Station
Haze Haze  
Wind Chill: 54°   Ceiling: Unl
Heat Index: 54°   Visibility: 5mi
Dew Point: 34°   Wind: 5mph
Humidity: 47%   Direction: 20°NNE
Pressure: 30.17"   Gusts: NA
Location:  33.1762°N, 91.7595°W
Report Text: KBQP 270015Z AUTO 02004KT 5SM HZ CLR 12/01 A3017 RMK AO2 T01210010
Loading
Personal Weather Stations






























Interactive Weather Map New forecast layout! Learn more

10-Day Weather Forecast

Advertisements
Track Severe Weather on mobile